Flight Track Log - Related Links

Times and Time Zones

All times are in EST time to prevent confusion due to time zone crossing. See the EJA929 flight status page for this flight to view local times or setup timezone preferences in your user account.

Time Position Orientation Groundspeed Altitude Reporting Facility
EST Latitude Longitude Course Direction KTS MPH feet Rate Location/Type
Sat 09:03:58 AM 40.0667 -75.0333 270° West 164 189 800  Level Philadelphia TRACON
Sat 09:04:28 AM 40.0667 -75.0667 270° West 197 227 1,900 2,933 Climbing Philadelphia TRACON
Sat 09:05:28 AM 40.0667 -75.1333 270° West 196 226 5,200 2,950 Climbing Philadelphia TRACON
Sat 09:06:28 AM 40.0500 -75.2167 255° West 255 293 7,800 2,400 Climbing Philadelphia TRACON
Sat 09:07:28 AM 40.0167 -75.3000 242° Southwest 270 311 10,000 830 Climbing Philadelphia TRACON
Sat 09:09:07 AM 39.9678 -75.4828 251° West 352 405 10,000 224 Level New York Center
Sat 09:10:09 AM 39.9344 -75.6111 251° West 349 402 10,600 1,220 Climbing New York Center
Sat 09:11:10 AM 39.9164 -75.7331 259° West 352 405 12,500 1,902 Climbing New York Center
Sat 09:12:12 AM 39.9142 -75.8619 269° West 353 406 14,500 2,098 Climbing New York Center
Sat 09:13:13 AM 39.9111 -75.9972 268° West 354 407 16,800 1,707 Climbing New York Center
Sat 09:14:15 AM 39.9089 -76.1317 269° West 354 407 18,000 1,306 Climbing New York Center
Sat 09:15:17 AM 39.9097 -76.2456 271° West 366 421 19,500 2,049 Climbing New York Center
Sat 09:16:18 AM 39.9169 -76.4058 273° West 369 425 22,200 2,244 Climbing New York Center
Sat 09:17:20 AM 39.9228 -76.5439 273° West 376 433 24,100 1,839 Climbing New York Center
Sat 09:18:22 AM 39.9278 -76.6794 273° West 381 438 26,000 1,854 Climbing New York Center
Sat 09:19:23 AM 39.9333 -76.8219 273° West 390 449 27,900 1,854 Climbing New York Center
Sat 09:20:25 AM 39.9386 -76.9653 273° West 394 453 29,800 1,935 Climbing New York Center
Sat 09:21:27 AM 39.9442 -77.1092 273° West 396 456 31,900 2,000 Climbing New York Center
Sat 09:22:28 AM 39.9481 -77.2514 272° West 396 456 33,900 1,902 Climbing New York Center
Sat 09:23:30 AM 39.9547 -77.4250 273° West 397 457 35,800 1,645 Climbing New York Center
Sat 09:24:32 AM 39.9589 -77.5689 272° West 398 458 37,300 1,514 Climbing New York Center
Sat 09:25:21 AM 39.9631 -77.6839 273° West 399 459 38,600 1,243 Climbing Cleveland Center
Sat 09:26:23 AM 39.9669 -77.8225 272° West 391 450 39,600 976 Climbing Cleveland Center
Sat 09:27:24 AM 39.9703 -77.9647 272° West 384 442 40,600 976 Climbing Cleveland Center
Sat 09:28:26 AM 39.9742 -78.0933 272° West 376 433 41,600 976 Climbing Cleveland Center
Sat 09:29:27 AM 39.9778 -78.2253 272° West 370 426 42,600 683 Climbing Cleveland Center
Sat 09:30:29 AM 39.9817 -78.3592 272° West 359 413 43,000 195 Climbing Cleveland Center
Sat 09:31:30 AM 39.9847 -78.4906 272° West 359 413 43,000  Level Cleveland Center
Sat 09:32:32 AM 39.9881 -78.6525 272° West 369 425 43,000  Level Cleveland Center
Sat 09:33:33 AM 39.9925 -78.7894 272° West 374 430 43,000  Level Cleveland Center
Sat 09:34:35 AM 39.9942 -78.9300 271° West 386 444 43,000  Level Cleveland Center
Sat 09:35:36 AM 39.9981 -79.0567 272° West 388 447 43,000  Level Cleveland Center
Sat 09:36:38 AM 40.0003 -79.2294 271° West 394 453 43,000  Level Cleveland Center
Sat 09:37:39 AM 40.0031 -79.3711 272° West 392 451 43,000  Level Cleveland Center
Sat 09:38:41 AM 40.0056 -79.5142 271° West 392 451 43,000  Level Cleveland Center
Sat 09:39:42 AM 40.0067 -79.6606 271° West 393 452 43,000  Level Cleveland Center
Sat 09:40:44 AM 40.0089 -79.8022 271° West 394 453 43,000  Level Cleveland Center
Sat 09:41:45 AM 40.0106 -79.9481 271° West 394 453 43,000  Level Cleveland Center
Sat 09:42:46 AM 40.0119 -80.0942 271° West 396 456 43,000  Level Cleveland Center
Sat 09:43:48 AM 40.0133 -80.2403 271° West 397 457 43,000  Level Cleveland Center
Sat 09:44:49 AM 40.0147 -80.3869 271° West 398 458 43,000  Level Cleveland Center
Sat 09:45:51 AM 40.0147 -80.5333 270° West 398 458 43,000  Level Cleveland Center
Sat 09:46:52 AM 40.0161 -80.6875 271° West 394 453 43,000  Level Cleveland Center
Sat 09:47:54 AM 40.0172 -80.8189 271° West 394 453 43,000  Level Cleveland Center
Sat 09:48:55 AM 40.0158 -80.9642 269° West 394 453 43,000  Level Cleveland Center
Sat 09:49:56 AM 40.0136 -81.1075 269° West 394 453 43,000  Level Cleveland Center
Sat 09:50:26 AM 40.0119 -81.1822 268° West 395 455 43,000  Level Indianapolis Center
Sat 09:51:27 AM 40.0094 -81.3256 269° West 394 453 43,000  Level Indianapolis Center
Sat 09:52:29 AM 40.0067 -81.4683 269° West 394 453 43,000  Level Indianapolis Center
Sat 09:53:30 AM 40.0033 -81.6356 269° West 393 452 43,000  Level Indianapolis Center
Sat 09:54:32 AM 40.0008 -81.7797 269° West 393 452 43,000  Level Indianapolis Center
Sat 09:55:34 AM 39.9972 -81.9242 268° West 393 452 43,000  Level Indianapolis Center
Sat 09:56:35 AM 39.9928 -82.0661 268° West 393 452 43,000  Level Indianapolis Center
Sat 09:57:37 AM 39.9906 -82.2086 269° West 393 452 43,000  Level Indianapolis Center
Sat 09:58:38 AM 39.9864 -82.3500 268° West 393 452 43,000  Level Indianapolis Center
Sat 09:59:41 AM 39.9828 -82.4919 268° West 393 452 43,000  Level Indianapolis Center
Sat 10:00:42 AM 39.9783 -82.6331 268° West 393 452 43,000  Level Indianapolis Center
Sat 10:01:44 AM 39.9744 -82.7689 268° West 384 442 43,000  Level Indianapolis Center
Sat 10:02:46 AM 39.9694 -82.9336 268° West 383 441 43,000  Level Indianapolis Center
Sat 10:03:47 AM 39.9650 -83.0725 268° West 383 441 43,000  Level Indianapolis Center
Sat 10:04:49 AM 39.9631 -83.2147 269° West 390 449 43,000  Level Indianapolis Center
Sat 10:05:50 AM 39.9586 -83.3567 268° West 391 450 43,000  Level Indianapolis Center
Sat 10:06:51 AM 39.9542 -83.4958 268° West 393 452 43,000  Level Indianapolis Center
Sat 10:07:53 AM 39.9467 -83.6600 267° West 390 449 43,000  Level Indianapolis Center
Sat 10:08:54 AM 39.9417 -83.7975 267° West 389 448 43,000  Level Indianapolis Center
Sat 10:09:56 AM 39.9358 -83.9333 267° West 384 442 43,000  Level Indianapolis Center
Sat 10:10:57 AM 39.9308 -84.0697 267° West 382 440 43,000  Level Indianapolis Center
Sat 10:11:59 AM 39.9258 -84.2050 267° West 379 436 43,000  Level Indianapolis Center
Sat 10:13:00 AM 39.9194 -84.3397 267° West 377 434 43,000  Level Indianapolis Center
Sat 10:14:02 AM 39.9131 -84.4753 267° West 377 434 43,000  Level Indianapolis Center
Sat 10:15:03 AM 39.9069 -84.6106 267° West 377 434 43,000  Level Indianapolis Center
Sat 10:16:05 AM 39.8864 -84.7700 261° West 377 434 43,000  Level Indianapolis Center
Sat 10:17:06 AM 39.8644 -84.9031 258° West 377 434 43,000  Level Indianapolis Center
Sat 10:18:08 AM 39.8408 -85.0500 258° West 381 438 43,000  Level Indianapolis Center
Sat 10:19:09 AM 39.8206 -85.1847 259° West 381 438 43,000  Level Indianapolis Center
Sat 10:20:10 AM 39.7992 -85.3192 258° West 381 438 43,000  Level Indianapolis Center
Sat 10:21:12 AM 39.7778 -85.4544 258° West 381 438 43,000  Level Indianapolis Center
Sat 10:22:13 AM 39.7567 -85.5881 258° West 381 438 43,000  Level Indianapolis Center
Sat 10:23:15 AM 39.7353 -85.7217 258° West 381 438 43,000  Level Indianapolis Center
Sat 10:24:16 AM 39.7139 -85.8556 258° West 380 437 43,000  Level Indianapolis Center
Sat 10:25:17 AM 39.6917 -85.9892 258° West 380 437 43,000  Level Indianapolis Center
Sat 10:26:19 AM 39.6694 -86.1225 258° West 380 437 43,000  Level Indianapolis Center
Sat 10:27:20 AM 39.6439 -86.2817 258° West 380 437 43,000  Level Indianapolis Center
Sat 10:28:21 AM 39.6242 -86.3925 257° West 377 434 43,000  Level Indianapolis Center
Sat 10:29:23 AM 39.6028 -86.5233 258° West 375 432 43,000  Level Indianapolis Center
Sat 10:30:24 AM 39.5806 -86.6533 258° West 371 427 43,000  Level Indianapolis Center
Sat 10:31:25 AM 39.5539 -86.8075 257° West 370 426 43,000  Level Indianapolis Center
Sat 10:32:27 AM 39.5331 -86.9347 258° West 368 423 43,000  Level Indianapolis Center
Sat 10:33:28 AM 39.5106 -87.0625 257° West 367 422 43,000  Level Indianapolis Center
Sat 10:34:29 AM 39.4886 -87.1900 257° West 366 421 43,000  Level Indianapolis Center
Sat 10:35:31 AM 39.4661 -87.3167 257° West 366 421 43,000  Level Indianapolis Center
Sat 10:36:32 AM 39.4433 -87.4431 257° West 364 419 43,000  Level Indianapolis Center
Sat 10:37:33 AM 39.4211 -87.5686 257° West 363 418 43,000  Level Indianapolis Center
Sat 10:38:34 AM 39.3981 -87.6942 257° West 363 418 43,000  Level Indianapolis Center
Sat 10:39:36 AM 39.3756 -87.8192 257° West 362 417 43,000  Level Indianapolis Center
Sat 10:40:37 AM 39.3492 -87.9642 257° West 362 417 43,000  Level Indianapolis Center
Sat 10:41:38 AM 39.3264 -88.0889 257° West 361 415 43,000  Level Indianapolis Center
Sat 10:42:40 AM 39.3036 -88.2142 257° West 361 415 43,000  Level Indianapolis Center
Sat 10:43:41 AM 39.2819 -88.3394 257° West 360 414 43,000  Level Indianapolis Center
Sat 10:44:42 AM 39.2611 -88.4667 258° West 360 414 43,000  Level Indianapolis Center
Sat 10:45:43 AM 39.2542 -88.5944 266° West 359 413 43,000  Level Indianapolis Center
Sat 10:46:45 AM 39.2453 -88.7228 265° West 359 413 43,000  Level Indianapolis Center
Sat 10:47:46 AM 39.2364 -88.8508 265° West 359 413 43,000  Level Indianapolis Center
Sat 10:48:47 AM 39.2250 -88.9794 264° West 359 413 43,000  Level Indianapolis Center
Sat 10:49:48 AM 39.2147 -89.1336 265° West 359 413 43,000  Level Indianapolis Center
Sat 10:50:50 AM 39.2044 -89.2636 264° West 360 414 43,000  Level Indianapolis Center
Sat 10:51:51 AM 39.1942 -89.3922 264° West 360 414 43,000  Level Indianapolis Center
Sat 10:53:12 AM 39.1800 -89.5597 264° West 362 417 43,000  Level Kansas City Center
Sat 10:54:13 AM 39.1700 -89.6881 264° West 362 417 43,000  Level Kansas City Center
Sat 10:55:15 AM 39.1594 -89.8192 264° West 365 420 43,000  Level Kansas City Center
Sat 10:56:16 AM 39.1486 -89.9481 264° West 365 420 43,000  Level Kansas City Center
Sat 10:57:17 AM 39.1350 -90.1033 264° West 365 420 43,000  Level Kansas City Center
Sat 10:58:19 AM 39.1242 -90.2328 264° West 365 420 43,000  Level Kansas City Center
Sat 10:59:20 AM 39.1131 -90.3619 264° West 365 420 43,000  Level Kansas City Center
Sat 11:00:22 AM 39.1014 -90.4911 263° West 366 421 43,000  Level Kansas City Center
Sat 11:01:23 AM 39.0894 -90.6200 263° West 366 421 43,000  Level Kansas City Center
Sat 11:02:25 AM 39.0778 -90.7469 263° West 365 420 43,000  Level Kansas City Center
Sat 11:03:26 AM 39.0661 -90.8769 263° West 365 420 43,000  Level Kansas City Center
Sat 11:04:28 AM 39.0514 -91.0325 263° West 366 421 43,000  Level Kansas City Center
Sat 11:05:29 AM 39.0392 -91.1642 263° West 369 425 43,000  Level Kansas City Center
Sat 11:06:31 AM 39.0267 -91.2958 263° West 370 426 43,000  Level Kansas City Center
Sat 11:07:32 AM 39.0139 -91.4300 263° West 373 429 43,000  Level Kansas City Center
Sat 11:08:33 AM 39.0011 -91.5644 263° West 379 436 43,000  Level Kansas City Center
Sat 11:09:35 AM 38.9853 -91.7208 263° West 384 442 43,000  Level Kansas City Center
Sat 11:10:36 AM 38.9725 -91.8531 263° West 380 437 43,000  Level Kansas City Center
Sat 11:11:38 AM 38.9581 -91.9806 262° West 367 422 43,000  Level Kansas City Center
Sat 11:12:39 AM 38.9447 -92.1111 263° West 366 421 43,000  Level Kansas City Center
Sat 11:13:41 AM 38.9306 -92.2433 262° West 368 423 43,000  Level Kansas City Center
Sat 11:14:42 AM 38.9167 -92.3750 262° West 369 425 43,000  Level Kansas City Center
Sat 11:15:44 AM 38.9025 -92.5047 262° West 369 425 43,000  Level Kansas City Center
Sat 11:16:45 AM 38.8881 -92.6364 262° West 369 425 43,000  Level Kansas City Center
Sat 11:17:47 AM 38.8711 -92.7931 262° West 369 425 43,000  Level Kansas City Center
Sat 11:18:48 AM 38.8556 -92.9233 261° West 369 425 43,000  Level Kansas City Center
Sat 11:19:50 AM 38.8414 -93.0575 262° West 373 429 43,000  Level Kansas City Center
Sat 11:20:52 AM 38.8272 -93.1869 262° West 373 429 43,000  Level Kansas City Center
Sat 11:21:53 AM 38.8122 -93.3175 262° West 373 429 43,000  Level Kansas City Center
Sat 11:22:55 AM 38.7975 -93.4486 262° West 373 429 43,000  Level Kansas City Center
Sat 11:23:56 AM 38.7817 -93.5808 261° West 373 429 43,000  Level Kansas City Center
Sat 11:24:58 AM 38.7658 -93.7131 261° West 373 429 43,000  Level Kansas City Center
Sat 11:26:00 AM 38.7483 -93.8664 262° West 372 428 43,000  Level Kansas City Center
Sat 11:27:01 AM 38.7333 -93.9917 261° West 372 428 43,000  Level Kansas City Center
Sat 11:28:03 AM 38.7175 -94.1167 261° West 372 428 43,000  Level Kansas City Center
Sat 11:29:05 AM 38.7003 -94.2633 261° West 372 428 43,000  Level Kansas City Center
Sat 11:30:06 AM 38.6844 -94.3883 261° West 372 428 43,000  Level Kansas City Center
Sat 11:31:08 AM 38.6661 -94.5350 261° West 372 428 43,000  Level Kansas City Center
Sat 11:32:10 AM 38.6503 -94.6608 261° West 372 428 43,000  Level Kansas City Center
Sat 11:33:12 AM 38.6342 -94.7858 261° West 372 428 43,000  Level Kansas City Center
Sat 11:34:14 AM 38.6153 -94.9336 261° West 373 429 43,000  Level Kansas City Center
Sat 11:35:15 AM 38.5997 -95.0581 261° West 372 428 43,000  Level Kansas City Center
Sat 11:36:17 AM 38.5797 -95.2042 260° West 372 428 43,000  Level Kansas City Center
Sat 11:37:19 AM 38.5633 -95.3306 261° West 374 430 43,000  Level Kansas City Center
Sat 11:38:21 AM 38.5447 -95.4778 261° West 374 430 43,000  Level Kansas City Center
Sat 11:39:23 AM 38.5272 -95.6053 260° West 377 434 43,000  Level Kansas City Center
Sat 11:40:24 AM 38.5100 -95.7297 260° West 376 433 43,000  Level Kansas City Center
Sat 11:41:26 AM 38.4903 -95.8761 260° West 374 430 43,000  Level Kansas City Center
Sat 11:42:28 AM 38.4742 -96.0019 261° West 374 430 43,000  Level Kansas City Center
Sat 11:43:30 AM 38.4528 -96.1486 259° West 375 432 43,000  Level Kansas City Center
Sat 11:44:31 AM 38.4356 -96.2725 260° West 374 430 43,000  Level Kansas City Center
Sat 11:45:33 AM 38.4153 -96.4192 260° West 374 430 43,000  Level Kansas City Center
Sat 11:46:35 AM 38.3967 -96.5442 259° West 377 434 43,000  Level Kansas City Center
Sat 11:47:37 AM 38.3781 -96.6750 260° West 377 434 43,000  Level Kansas City Center
Sat 11:48:38 AM 38.3592 -96.8047 260° West 377 434 43,000  Level Kansas City Center
Sat 11:49:40 AM 38.3397 -96.9347 259° West 376 433 43,000  Level Kansas City Center
Sat 11:50:42 AM 38.3208 -97.0650 260° West 376 433 43,000  Level Kansas City Center
Sat 11:51:44 AM 38.2981 -97.2194 259° West 375 432 43,000  Level Kansas City Center
Sat 11:52:46 AM 38.2792 -97.3483 259° West 375 432 43,000  Level Kansas City Center
Sat 11:53:47 AM 38.2594 -97.4761 259° West 374 430 43,000  Level Kansas City Center
Sat 11:54:49 AM 38.2400 -97.6039 259° West 373 429 43,000  Level Kansas City Center
Sat 11:55:51 AM 38.2200 -97.7314 259° West 372 428 43,000  Level Kansas City Center
Sat 11:56:52 AM 38.2003 -97.8589 259° West 372 428 43,000  Level Kansas City Center
Sat 11:57:54 AM 38.1772 -98.0122 259° West 372 428 43,000  Level Kansas City Center
Sat 11:58:56 AM 38.1558 -98.1389 258° West 372 428 43,000  Level Kansas City Center
Sat 11:59:58 AM 38.1361 -98.2675 259° West 373 429 43,000  Level Kansas City Center
Sat 12:01:00 PM 38.1158 -98.3953 259° West 373 429 43,000  Level Kansas City Center
Sat 12:02:01 PM 38.0953 -98.5247 259° West 373 429 43,000  Level Kansas City Center
Sat 12:03:03 PM 38.0689 -98.6797 258° West 374 430 43,000  Level Kansas City Center
Sat 12:04:05 PM 38.0483 -98.8094 259° West 374 430 43,000  Level Kansas City Center
Sat 12:05:06 PM 38.0272 -98.9392 258° West 375 432 43,000  Level Kansas City Center
Sat 12:06:08 PM 38.0056 -99.0706 258° West 378 435 43,000  Level Kansas City Center
Sat 12:07:10 PM 37.9836 -99.2025 258° West 379 436 43,000  Level Kansas City Center
Sat 12:08:11 PM 37.9611 -99.3339 258° West 380 437 43,000  Level Kansas City Center
Sat 12:09:13 PM 37.9383 -99.4664 258° West 382 440 43,000  Level Kansas City Center
Sat 12:10:15 PM 37.9136 -99.6144 258° West 379 436 43,000  Level Kansas City Center
Sat 12:11:16 PM 37.8875 -99.7611 257° West 380 437 43,000  Level Kansas City Center
Sat 12:12:18 PM 37.8672 -99.8828 258° West 377 434 43,000  Level Kansas City Center
Sat 12:13:20 PM 37.8453 -100.0042 257° West 373 429 43,000  Level Kansas City Center
Sat 12:14:21 PM 37.8211 -100.1444 258° West 369 425 43,000  Level Kansas City Center
Sat 12:15:23 PM 37.7989 -100.2633 257° West 367 422 43,000  Level Kansas City Center
Sat 12:16:25 PM 37.7744 -100.4000 257° West 362 417 43,000  Level Kansas City Center
Sat 12:17:26 PM 37.7550 -100.5083 257° West 359 413 43,000  Level Kansas City Center
Sat 12:18:28 PM 37.7331 -100.6342 258° West 362 417 43,000  Level Kansas City Center
Sat 12:19:30 PM 37.7058 -100.7867 257° West 366 421 43,000  Level Kansas City Center
Sat 12:20:31 PM 37.6825 -100.9139 257° West 367 422 43,000  Level Kansas City Center
Sat 12:21:33 PM 37.6553 -101.0497 256° West 385 443 43,000  Level Kansas City Center
Sat 12:22:35 PM 37.6303 -101.1867 257° West 384 442 43,000  Level Kansas City Center
Sat 12:23:36 PM 37.6075 -101.3089 257° West 377 434 43,000  Level Kansas City Center
Sat 12:24:38 PM 37.5806 -101.4514 257° West 377 434 43,000  Level Kansas City Center
Sat 12:25:40 PM 37.5583 -101.5742 257° West 376 433 43,000  Level Kansas City Center
Sat 12:26:41 PM 37.5347 -101.6972 256° West 377 434 43,000  Level Kansas City Center
Sat 12:27:43 PM 37.5069 -101.8397 256° West 376 433 43,000  Level Kansas City Center
Sat 12:28:44 PM 37.4836 -101.9611 256° West 376 433 43,000  Level Kansas City Center
Sat 12:29:46 PM 37.4558 -102.1033 256° West 374 430 43,000  Level Kansas City Center
Sat 12:30:48 PM 37.4325 -102.2233 256° West 374 430 43,000  Level Kansas City Center
Sat 12:31:49 PM 37.4047 -102.3664 256° West 374 430 43,000  Level Kansas City Center
Sat 12:32:51 PM 37.3803 -102.4853 256° West 373 429 43,000  Level Kansas City Center
Sat 12:33:53 PM 37.3561 -102.6078 256° West 373 429 43,000  Level Kansas City Center
Sat 12:34:54 PM 37.3275 -102.7500 256° West 373 429 43,000  Level Kansas City Center
Sat 12:35:24 PM 37.3161 -102.8117 257° West 374 430 43,000  Level Albuquerque Center
Sat 12:36:26 PM 37.2914 -102.9356 256° West 378 435 43,000  Level Albuquerque Center
Sat 12:38:30 PM 37.2383 -103.2011 256° West 376 433 43,000  Level Albuquerque Center
Sat 12:39:31 PM 37.2083 -103.3456 255° West 381 438 43,000  Level Albuquerque Center
Sat 12:40:33 PM 37.1828 -103.4678 255° West 378 435 43,000  Level Albuquerque Center
Sat 12:41:40 PM 37.1522 -103.6114 255° West 380 437 43,000  Level Denver Center
Sat 12:42:42 PM 37.1267 -103.7356 256° West 380 437 43,000  Level Denver Center
Sat 12:43:39 PM 37.1006 -103.8581 255° West 378 435 43,000  Level Albuquerque Center
Sat 12:44:40 PM 37.0708 -104.0006 255° West 376 433 43,000  Level Albuquerque Center
Sat 12:45:42 PM 37.0436 -104.1247 255° West 381 438 43,000  Level Albuquerque Center
Sat 12:46:44 PM 37.0128 -104.2703 255° West 385 443 43,000  Level Albuquerque Center
Sat 12:47:52 PM 36.9806 -104.4189 255° West 393 452 43,000  Level Denver Center
Sat 12:48:54 PM 36.9536 -104.5439 255° West 392 451 43,000  Level Denver Center
Sat 12:49:49 PM 36.9275 -104.6558 254° West 383 441 43,000  Level Albuquerque Center
Sat 12:50:51 PM 36.8989 -104.7858 255° West 385 443 43,000  Level Albuquerque Center
Sat 12:51:52 PM 36.8683 -104.9314 255° West 383 441 43,000  Level Albuquerque Center
Sat 12:52:54 PM 36.8406 -105.0536 254° West 382 440 43,000  Level Albuquerque Center
Sat 12:53:56 PM 36.8133 -105.1767 255° West 383 441 43,000  Level Albuquerque Center
Sat 12:54:58 PM 36.7803 -105.3256 255° West 394 453 43,000  Level Albuquerque Center
Sat 12:55:59 PM 36.7517 -105.4508 254° West 395 455 43,000  Level Albuquerque Center
Sat 12:57:01 PM 36.7200 -105.5861 254° West 395 455 43,000 -48 Level Albuquerque Center
Sat 12:58:03 PM 36.6897 -105.7172 254° West 394 453 42,900  Descending Albuquerque Center
Sat 12:59:05 PM 36.6597 -105.8475 254° West 395 455 43,000 49 Climbing Albuquerque Center
Sat 01:00:06 PM 36.6294 -105.9756 254° West 390 449 43,000  Level Albuquerque Center
Sat 01:01:08 PM 36.5950 -106.1303 255° West 388 447 43,000  Level Albuquerque Center
Sat 01:01:33 PM 36.5828 -106.1797 253° West 385 443 43,000  Level Albuquerque Center
Sat 01:02:35 PM 36.5525 -106.3061 253° West 382 440 43,000  Level Albuquerque Center
Sat 01:03:36 PM 36.5231 -106.4322 254° West 382 440 43,000  Level Albuquerque Center
Sat 01:04:38 PM 36.4939 -106.5581 254° West 380 437 43,000  Level Albuquerque Center
Sat 01:05:40 PM 36.4589 -106.6994 253° West 382 440 43,000  Level Denver Center
Sat 01:06:42 PM 36.4297 -106.8222 254° West 383 441 43,000  Level Denver Center
Sat 01:07:44 PM 36.3953 -106.9658 253° West 385 443 43,000  Level Denver Center
Sat 01:08:46 PM 36.3669 -107.0878 254° West 385 443 43,000  Level Denver Center
Sat 01:09:48 PM 36.3311 -107.2281 252° West 385 443 43,000  Level Denver Center
Sat 01:10:50 PM 36.3031 -107.3500 254° West 384 442 43,000  Level Denver Center
Sat 01:11:52 PM 36.2669 -107.4914 252° West 384 442 43,000  Level Denver Center
Sat 01:12:54 PM 36.2372 -107.6136 253° West 384 442 43,000  Level Denver Center
Sat 01:13:54 PM 36.2069 -107.7367 253° West 387 445 43,000  Level Albuquerque Center
Sat 01:14:56 PM 36.1717 -107.8789 253° West 387 445 43,000  Level Albuquerque Center
Sat 01:15:58 PM 36.1403 -108.0014 252° West 389 448 43,000  Level Albuquerque Center
Sat 01:17:00 PM 36.1047 -108.1436 253° West 388 447 43,000  Level Albuquerque Center
Sat 01:18:01 PM 36.0739 -108.2653 253° West 388 447 43,000  Level Albuquerque Center
Sat 01:19:03 PM 36.0425 -108.3875 252° West 388 447 43,000  Level Albuquerque Center
Sat 01:20:05 PM 36.0064 -108.5294 253° West 389 448 43,000  Level Albuquerque Center
Sat 01:21:07 PM 35.9736 -108.6561 252° West 389 448 43,000  Level Albuquerque Center
Sat 01:22:08 PM 35.9414 -108.7825 253° West 388 447 43,000  Level Albuquerque Center
Sat 01:23:10 PM 35.9058 -108.9114 251° West 396 456 43,000  Level Albuquerque Center
Sat 01:24:12 PM 35.8706 -109.0497 253° West 400 460 43,000  Level Albuquerque Center
Sat 01:25:14 PM 35.8314 -109.1986 252° West 406 467 43,000  Level Albuquerque Center
Sat 01:26:15 PM 35.7978 -109.3242 252° West 405 466 43,000  Level Albuquerque Center
Sat 01:27:17 PM 35.7586 -109.4728 252° West 406 467 43,000  Level Albuquerque Center
Sat 01:28:19 PM 35.7236 -109.5992 251° West 406 467 43,000  Level Albuquerque Center
Sat 01:29:21 PM 35.6892 -109.7250 251° West 406 467 43,000  Level Albuquerque Center
Sat 01:30:22 PM 35.6508 -109.8736 252° West 408 470 43,000  Level Albuquerque Center
Sat 01:31:24 PM 35.6156 -110.0006 251° West 408 470 43,000  Level Albuquerque Center
Sat 01:32:26 PM 35.5722 -110.1492 250° West 412 474 43,000  Level Albuquerque Center
Sat 01:33:28 PM 35.5375 -110.2761 251° West 411 473 43,000  Level Albuquerque Center
Sat 01:34:29 PM 35.4972 -110.4272 252° West 416 479 43,000  Level Albuquerque Center
Sat 01:35:31 PM 35.4589 -110.5581 250° West 421 484 43,000  Level Albuquerque Center
Sat 01:36:33 PM 35.4233 -110.6864 251° West 418 481 43,000  Level Albuquerque Center
Sat 01:37:35 PM 35.3817 -110.8369 251° West 418 481 43,000 -732 Level Albuquerque Center
Sat 01:38:36 PM 35.3475 -110.9636 252° West 412 474 41,500 -1,902 Descending Albuquerque Center
Sat 01:39:38 PM 35.3133 -111.0972 253° West 406 467 39,100 -2,419 Descending Albuquerque Center
Sat 01:40:40 PM 35.2769 -111.2242 251° West 403 464 36,500 -2,903 Descending Albuquerque Center
Sat 01:41:42 PM 35.2422 -111.3456 251° West 394 453 33,100 -2,195 Descending Albuquerque Center
Sat 01:42:43 PM 35.2047 -111.4722 250° West 393 452 32,000 -1,512 Descending Albuquerque Center
Sat 01:43:45 PM 35.1583 -111.6247 250° West 397 457 30,000 -1,452 Descending Albuquerque Center
Sat 01:44:47 PM 35.0714 -111.7017 216° Southwest 398 458 29,000 -1,161 Descending Albuquerque Center
Sat 01:45:49 PM 34.9608 -111.7300 192° South 400 460 27,600 -1,016 Descending Albuquerque Center
Sat 01:46:51 PM 34.8517 -111.7592 192° South 401 461 26,900 -1,073 Descending Albuquerque Center
Sat 01:47:52 PM 34.7458 -111.7883 193° South 399 459 25,400 -1,756 Descending Albuquerque Center
Sat 01:48:54 PM 34.6422 -111.8158 192° South 389 448 23,300 -2,323 Descending Albuquerque Center
Sat 01:49:56 PM 34.5147 -111.8528 193° South 391 450 20,600 -2,516 Descending Albuquerque Center
Sat 01:50:58 PM 34.4108 -111.8825 193° South 390 449 18,100 -2,439 Descending Albuquerque Center
Sat 01:51:59 PM 34.3178 -111.9092 193° South 360 414 15,600 -2,439 Descending Albuquerque Center
Sat 01:53:01 PM 34.2283 -111.9197 186° South 335 386 13,100 -1,790 Descending Albuquerque Center
Sat 01:54:03 PM 34.1425 -111.9242 182° South 314 361 11,900 -1,366 Descending Albuquerque Center
Sat 01:55:04 PM 34.0667 -111.9281 182° South 279 321 10,300 -1,707 Descending Albuquerque Center
Sat 01:56:06 PM 33.9789 -111.9336 183° South 268 308 8,400 -1,548 Descending Albuquerque Center
Sat 01:57:08 PM 33.9069 -111.9492 190° South 267 307 7,100 -1,016 Descending Albuquerque Center
Sat 01:58:10 PM 33.8411 -111.9628 190° South 243 280 6,300 -585 Descending Albuquerque Center
Sat 01:59:11 PM 33.7822 -111.9756 190° South 218 251 5,900 -195 Descending Albuquerque Center
Sat 02:00:13 PM 33.7253 -111.9872 190° South 212 244 5,900  Level Albuquerque Center
Sat 02:01:15 PM 33.6639 -112.0306 210° Southwest 216 249 5,900 49 Level Albuquerque Center
Sat 02:02:16 PM 33.6061 -112.0431 190° South 219 252 6,000 -49 Climbing Albuquerque Center
Sat 02:03:18 PM 33.5489 -112.0411 178° South 205 236 5,800 -537 Descending Albuquerque Center
Sat 02:04:19 PM 33.5033 -112.0364 175° South 169 194 4,900 -439 Descending Albuquerque Center
Sat 02:05:21 PM 33.4661 -112.0086 148° Southeast 183 211 4,900 48 Level Albuquerque Center
Sat 02:06:23 PM 33.4733 -111.9581 80° East 173 199 5,000 -532 Climbing Albuquerque Center
Sat 02:07:25 PM 33.5178 -111.9400 19° North 173 199 3,800 -1,122 Descending Albuquerque Center
Sat 02:08:26 PM 33.5731 -111.9281 10° North 169 194 2,700 -732 Descending Albuquerque Center
Sat 02:09:28 PM 33.6050 -111.9011 35° Northeast 161 185 2,300 -145 Descending Albuquerque Center
Sat 02:10:30 PM 33.6233 -111.8628 60° Northeast 149 171 2,400 -341 Climbing Albuquerque Center
Sat 02:11:31 PM 33.6344 -111.8983 291° West 166 191 1,600 -488 Descending Albuquerque Center
Sat 02:12:33 PM 33.6056 -111.9197 212° Southwest 157 181 1,400 -194 Descending Albuquerque Center

Login

Don't have an account? Register now (free) for customized features, flight alerts, and more!